sensor_id;sensor_type;location;lat;lon;timestamp;temperature;humidity
12885;DHT22;6510;51.362;7.370;2023-11-21T00:01:52;6.30;99.90
12885;DHT22;6510;51.362;7.370;2023-11-21T00:04:18;6.40;99.90
12885;DHT22;6510;51.362;7.370;2023-11-21T00:06:43;6.40;99.90
12885;DHT22;6510;51.362;7.370;2023-11-21T00:09:13;6.40;99.90
12885;DHT22;6510;51.362;7.370;2023-11-21T00:11:41;6.40;99.90
12885;DHT22;6510;51.362;7.370;2023-11-21T00:14:06;6.30;99.90
12885;DHT22;6510;51.362;7.370;2023-11-21T00:16:33;6.30;99.90
12885;DHT22;6510;51.362;7.370;2023-11-21T00:18:59;6.30;99.90
12885;DHT22;6510;51.362;7.370;2023-11-21T00:21:25;6.40;99.90
12885;DHT22;6510;51.362;7.370;2023-11-21T00:23:51;6.40;99.90
12885;DHT22;6510;51.362;7.370;2023-11-21T00:26:16;6.50;99.90
12885;DHT22;6510;51.362;7.370;2023-11-21T00:28:42;6.60;99.90
12885;DHT22;6510;51.362;7.370;2023-11-21T00:31:08;6.60;99.90
12885;DHT22;6510;51.362;7.370;2023-11-21T00:33:33;6.60;99.90
12885;DHT22;6510;51.362;7.370;2023-11-21T00:35:59;6.70;99.90
12885;DHT22;6510;51.362;7.370;2023-11-21T00:38:26;6.80;99.90
12885;DHT22;6510;51.362;7.370;2023-11-21T00:40:52;6.80;99.90
12885;DHT22;6510;51.362;7.370;2023-11-21T00:43:24;6.80;99.90
12885;DHT22;6510;51.362;7.370;2023-11-21T00:45:49;6.70;99.90
12885;DHT22;6510;51.362;7.370;2023-11-21T00:48:15;6.70;99.90
12885;DHT22;6510;51.362;7.370;2023-11-21T00:50:41;6.60;99.90
12885;DHT22;6510;51.362;7.370;2023-11-21T00:53:06;6.70;99.90
12885;DHT22;6510;51.362;7.370;2023-11-21T00:55:33;6.70;99.90
12885;DHT22;6510;51.362;7.370;2023-11-21T00:57:59;6.80;99.90
12885;DHT22;6510;51.362;7.370;2023-11-21T01:00:25;6.80;99.90
12885;DHT22;6510;51.362;7.370;2023-11-21T01:02:50;6.80;99.90
12885;DHT22;6510;51.362;7.370;2023-11-21T01:05:16;6.80;99.90
12885;DHT22;6510;51.362;7.370;2023-11-21T01:07:42;6.70;99.90
12885;DHT22;6510;51.362;7.370;2023-11-21T01:10:08;6.70;99.90
12885;DHT22;6510;51.362;7.370;2023-11-21T01:12:36;6.80;99.90
12885;DHT22;6510;51.362;7.370;2023-11-21T01:15:04;6.80;99.90
12885;DHT22;6510;51.362;7.370;2023-11-21T01:17:32;6.90;99.90
12885;DHT22;6510;51.362;7.370;2023-11-21T01:20:00;6.90;99.90
12885;DHT22;6510;51.362;7.370;2023-11-21T01:22:25;6.90;99.90
12885;DHT22;6510;51.362;7.370;2023-11-21T01:24:53;7.00;99.90
12885;DHT22;6510;51.362;7.370;2023-11-21T01:27:18;7.00;99.90
12885;DHT22;6510;51.362;7.370;2023-11-21T01:29:44;7.00;99.90
12885;DHT22;6510;51.362;7.370;2023-11-21T01:32:10;7.00;99.90
12885;DHT22;6510;51.362;7.370;2023-11-21T01:34:36;6.90;99.90
12885;DHT22;6510;51.362;7.370;2023-11-21T01:37:02;6.90;99.90
12885;DHT22;6510;51.362;7.370;2023-11-21T01:39:30;6.90;99.90
12885;DHT22;6510;51.362;7.370;2023-11-21T01:41:57;7.00;99.90
12885;DHT22;6510;51.362;7.370;2023-11-21T01:44:24;7.00;99.90
12885;DHT22;6510;51.362;7.370;2023-11-21T01:46:50;7.00;99.90
12885;DHT22;6510;51.362;7.370;2023-11-21T01:49:17;7.00;99.90
12885;DHT22;6510;51.362;7.370;2023-11-21T01:51:45;7.00;99.90
12885;DHT22;6510;51.362;7.370;2023-11-21T01:54:12;6.90;99.90
12885;DHT22;6510;51.362;7.370;2023-11-21T01:56:38;6.90;99.90
12885;DHT22;6510;51.362;7.370;2023-11-21T01:59:04;6.90;99.90
12885;DHT22;6510;51.362;7.370;2023-11-21T02:01:30;6.90;99.90
12885;DHT22;6510;51.362;7.370;2023-11-21T02:03:56;6.90;99.90
12885;DHT22;6510;51.362;7.370;2023-11-21T02:06:21;6.90;99.90
12885;DHT22;6510;51.362;7.370;2023-11-21T02:08:48;6.90;99.90
12885;DHT22;6510;51.362;7.370;2023-11-21T02:11:14;7.00;99.90
12885;DHT22;6510;51.362;7.370;2023-11-21T02:13:40;6.90;99.90
12885;DHT22;6510;51.362;7.370;2023-11-21T02:16:09;6.90;99.90
12885;DHT22;6510;51.362;7.370;2023-11-21T02:18:36;6.90;99.90
12885;DHT22;6510;51.362;7.370;2023-11-21T02:21:04;6.90;99.90
12885;DHT22;6510;51.362;7.370;2023-11-21T02:23:30;6.90;99.90
12885;DHT22;6510;51.362;7.370;2023-11-21T02:25:55;6.90;99.90
12885;DHT22;6510;51.362;7.370;2023-11-21T02:28:21;6.90;99.90
12885;DHT22;6510;51.362;7.370;2023-11-21T02:30:51;6.90;99.90
12885;DHT22;6510;51.362;7.370;2023-11-21T02:33:21;7.00;99.90
12885;DHT22;6510;51.362;7.370;2023-11-21T02:35:50;7.00;99.90
12885;DHT22;6510;51.362;7.370;2023-11-21T02:38:20;7.00;99.90
12885;DHT22;6510;51.362;7.370;2023-11-21T02:40:46;7.00;99.90
12885;DHT22;6510;51.362;7.370;2023-11-21T02:43:12;7.10;99.90
12885;DHT22;6510;51.362;7.370;2023-11-21T02:45:37;7.00;99.90
12885;DHT22;6510;51.362;7.370;2023-11-21T02:48:03;7.00;99.90
12885;DHT22;6510;51.362;7.370;2023-11-21T02:50:29;6.90;99.90
12885;DHT22;6510;51.362;7.370;2023-11-21T02:52:55;6.90;99.90
12885;DHT22;6510;51.362;7.370;2023-11-21T02:55:23;6.90;99.90
12885;DHT22;6510;51.362;7.370;2023-11-21T02:57:50;6.90;99.90
12885;DHT22;6510;51.362;7.370;2023-11-21T03:00:16;6.90;99.90
12885;DHT22;6510;51.362;7.370;2023-11-21T03:02:43;6.80;99.90
12885;DHT22;6510;51.362;7.370;2023-11-21T03:05:09;6.80;99.90
12885;DHT22;6510;51.362;7.370;2023-11-21T03:07:36;6.80;99.90
12885;DHT22;6510;51.362;7.370;2023-11-21T03:10:02;6.80;99.90
12885;DHT22;6510;51.362;7.370;2023-11-21T03:12:29;6.80;99.90
12885;DHT22;6510;51.362;7.370;2023-11-21T03:14:55;6.80;99.90
12885;DHT22;6510;51.362;7.370;2023-11-21T03:17:20;6.80;99.90
12885;DHT22;6510;51.362;7.370;2023-11-21T03:19:46;6.80;99.90
12885;DHT22;6510;51.362;7.370;2023-11-21T03:22:12;6.80;99.90
12885;DHT22;6510;51.362;7.370;2023-11-21T03:24:37;6.80;99.90
12885;DHT22;6510;51.362;7.370;2023-11-21T03:27:04;6.80;99.90
12885;DHT22;6510;51.362;7.370;2023-11-21T03:29:30;6.80;99.90
12885;DHT22;6510;51.362;7.370;2023-11-21T03:31:55;6.80;99.90
12885;DHT22;6510;51.362;7.370;2023-11-21T03:34:26;6.80;99.90
12885;DHT22;6510;51.362;7.370;2023-11-21T03:36:52;6.80;99.90
12885;DHT22;6510;51.362;7.370;2023-11-21T03:39:22;6.80;99.90
12885;DHT22;6510;51.362;7.370;2023-11-21T03:41:48;6.70;99.90
12885;DHT22;6510;51.362;7.370;2023-11-21T03:44:14;6.70;99.90
12885;DHT22;6510;51.362;7.370;2023-11-21T03:46:39;6.70;99.90
12885;DHT22;6510;51.362;7.370;2023-11-21T03:49:05;6.70;99.90
12885;DHT22;6510;51.362;7.370;2023-11-21T03:51:31;6.80;99.90
12885;DHT22;6510;51.362;7.370;2023-11-21T03:53:56;6.80;99.90
12885;DHT22;6510;51.362;7.370;2023-11-21T03:56:22;6.80;99.90
12885;DHT22;6510;51.362;7.370;2023-11-21T03:58:48;6.80;99.90
12885;DHT22;6510;51.362;7.370;2023-11-21T04:01:24;6.80;99.90
12885;DHT22;6510;51.362;7.370;2023-11-21T04:03:50;6.80;99.90
12885;DHT22;6510;51.362;7.370;2023-11-21T04:06:17;6.70;99.90
12885;DHT22;6510;51.362;7.370;2023-11-21T04:08:45;6.70;99.90
12885;DHT22;6510;51.362;7.370;2023-11-21T04:11:11;6.80;99.90
12885;DHT22;6510;51.362;7.370;2023-11-21T04:13:41;6.80;99.90
12885;DHT22;6510;51.362;7.370;2023-11-21T04:16:08;6.80;99.90
12885;DHT22;6510;51.362;7.370;2023-11-21T04:18:36;6.90;99.90
12885;DHT22;6510;51.362;7.370;2023-11-21T04:21:02;6.90;99.90
12885;DHT22;6510;51.362;7.370;2023-11-21T04:23:29;6.90;99.90
12885;DHT22;6510;51.362;7.370;2023-11-21T04:25:57;6.90;99.90
12885;DHT22;6510;51.362;7.370;2023-11-21T04:28:23;6.90;99.90
12885;DHT22;6510;51.362;7.370;2023-11-21T04:30:49;7.00;99.90
12885;DHT22;6510;51.362;7.370;2023-11-21T04:33:15;7.00;99.90
12885;DHT22;6510;51.362;7.370;2023-11-21T04:35:41;7.00;99.90
12885;DHT22;6510;51.362;7.370;2023-11-21T04:38:07;7.00;99.90
12885;DHT22;6510;51.362;7.370;2023-11-21T04:40:33;7.00;99.90
12885;DHT22;6510;51.362;7.370;2023-11-21T04:42:58;7.00;99.90
12885;DHT22;6510;51.362;7.370;2023-11-21T04:45:24;6.90;99.90
12885;DHT22;6510;51.362;7.370;2023-11-21T04:47:50;6.90;99.90
12885;DHT22;6510;51.362;7.370;2023-11-21T04:50:15;6.90;99.90
12885;DHT22;6510;51.362;7.370;2023-11-21T04:52:41;6.80;99.90
12885;DHT22;6510;51.362;7.370;2023-11-21T04:55:07;6.80;99.90
12885;DHT22;6510;51.362;7.370;2023-11-21T04:57:36;6.80;99.90
12885;DHT22;6510;51.362;7.370;2023-11-21T05:00:02;6.80;99.90
12885;DHT22;6510;51.362;7.370;2023-11-21T05:02:31;6.70;99.90
12885;DHT22;6510;51.362;7.370;2023-11-21T05:04:59;6.70;99.90
12885;DHT22;6510;51.362;7.370;2023-11-21T05:07:35;6.60;99.90
12885;DHT22;6510;51.362;7.370;2023-11-21T05:10:01;6.50;99.90
12885;DHT22;6510;51.362;7.370;2023-11-21T05:12:31;6.50;99.90
12885;DHT22;6510;51.362;7.370;2023-11-21T05:15:04;6.40;99.90
12885;DHT22;6510;51.362;7.370;2023-11-21T05:17:35;6.40;99.90
12885;DHT22;6510;51.362;7.370;2023-11-21T05:20:01;6.40;99.90
12885;DHT22;6510;51.362;7.370;2023-11-21T05:22:34;6.30;99.90
12885;DHT22;6510;51.362;7.370;2023-11-21T05:25:00;6.30;99.90
12885;DHT22;6510;51.362;7.370;2023-11-21T05:27:25;6.30;99.90
12885;DHT22;6510;51.362;7.370;2023-11-21T05:29:51;6.20;99.90
12885;DHT22;6510;51.362;7.370;2023-11-21T05:32:16;6.20;99.90
12885;DHT22;6510;51.362;7.370;2023-11-21T05:34:43;6.30;99.90
12885;DHT22;6510;51.362;7.370;2023-11-21T05:37:08;6.30;99.90
12885;DHT22;6510;51.362;7.370;2023-11-21T05:39:34;6.40;99.90
12885;DHT22;6510;51.362;7.370;2023-11-21T05:42:01;6.40;99.90
12885;DHT22;6510;51.362;7.370;2023-11-21T05:44:26;6.40;99.90
12885;DHT22;6510;51.362;7.370;2023-11-21T05:46:52;6.50;99.90
12885;DHT22;6510;51.362;7.370;2023-11-21T05:49:18;6.50;99.90
12885;DHT22;6510;51.362;7.370;2023-11-21T05:51:47;6.50;99.90
12885;DHT22;6510;51.362;7.370;2023-11-21T05:54:12;6.60;99.90
12885;DHT22;6510;51.362;7.370;2023-11-21T05:56:38;6.60;99.90
12885;DHT22;6510;51.362;7.370;2023-11-21T05:59:04;6.60;99.90
12885;DHT22;6510;51.362;7.370;2023-11-21T06:01:29;6.60;99.90
12885;DHT22;6510;51.362;7.370;2023-11-21T06:03:55;6.60;99.90
12885;DHT22;6510;51.362;7.370;2023-11-21T06:06:21;6.70;99.90
12885;DHT22;6510;51.362;7.370;2023-11-21T06:08:48;6.70;99.90
12885;DHT22;6510;51.362;7.370;2023-11-21T06:11:14;6.70;99.90
12885;DHT22;6510;51.362;7.370;2023-11-21T06:13:40;6.70;99.90
12885;DHT22;6510;51.362;7.370;2023-11-21T06:16:06;6.70;99.90
12885;DHT22;6510;51.362;7.370;2023-11-21T06:18:31;6.70;99.90
12885;DHT22;6510;51.362;7.370;2023-11-21T06:20:57;6.70;99.90
12885;DHT22;6510;51.362;7.370;2023-11-21T06:23:24;6.70;99.90
12885;DHT22;6510;51.362;7.370;2023-11-21T06:25:49;6.70;99.90
12885;DHT22;6510;51.362;7.370;2023-11-21T06:28:15;6.70;99.90
12885;DHT22;6510;51.362;7.370;2023-11-21T06:30:43;6.60;99.90
12885;DHT22;6510;51.362;7.370;2023-11-21T06:33:10;6.50;99.90
12885;DHT22;6510;51.362;7.370;2023-11-21T06:35:36;6.50;99.90
12885;DHT22;6510;51.362;7.370;2023-11-21T06:38:02;6.60;99.90
12885;DHT22;6510;51.362;7.370;2023-11-21T06:40:28;6.60;99.90
12885;DHT22;6510;51.362;7.370;2023-11-21T06:42:54;6.60;99.90
12885;DHT22;6510;51.362;7.370;2023-11-21T06:45:19;6.70;99.90
12885;DHT22;6510;51.362;7.370;2023-11-21T06:47:45;6.70;99.90
12885;DHT22;6510;51.362;7.370;2023-11-21T06:50:11;6.80;99.90
12885;DHT22;6510;51.362;7.370;2023-11-21T06:52:37;6.80;99.90
12885;DHT22;6510;51.362;7.370;2023-11-21T06:55:04;6.80;99.90
12885;DHT22;6510;51.362;7.370;2023-11-21T06:57:30;6.90;99.90
12885;DHT22;6510;51.362;7.370;2023-11-21T06:59:56;6.90;99.90
12885;DHT22;6510;51.362;7.370;2023-11-21T07:02:22;7.00;99.90
12885;DHT22;6510;51.362;7.370;2023-11-21T07:04:48;7.00;99.90
12885;DHT22;6510;51.362;7.370;2023-11-21T07:07:14;6.90;99.90
12885;DHT22;6510;51.362;7.370;2023-11-21T07:09:39;6.90;99.90
12885;DHT22;6510;51.362;7.370;2023-11-21T07:12:05;6.90;99.90
12885;DHT22;6510;51.362;7.370;2023-11-21T07:14:33;6.90;99.90
12885;DHT22;6510;51.362;7.370;2023-11-21T07:16:59;6.90;99.90
12885;DHT22;6510;51.362;7.370;2023-11-21T07:19:24;6.90;99.90
12885;DHT22;6510;51.362;7.370;2023-11-21T07:21:50;7.00;99.90
12885;DHT22;6510;51.362;7.370;2023-11-21T07:24:16;7.10;99.90
12885;DHT22;6510;51.362;7.370;2023-11-21T07:26:42;7.10;99.90
12885;DHT22;6510;51.362;7.370;2023-11-21T07:29:08;7.20;99.90
12885;DHT22;6510;51.362;7.370;2023-11-21T07:31:34;7.20;99.90
12885;DHT22;6510;51.362;7.370;2023-11-21T07:34:00;7.20;99.90
12885;DHT22;6510;51.362;7.370;2023-11-21T07:36:26;7.30;99.90
12885;DHT22;6510;51.362;7.370;2023-11-21T07:38:52;7.30;99.90
12885;DHT22;6510;51.362;7.370;2023-11-21T07:41:17;7.40;99.90
12885;DHT22;6510;51.362;7.370;2023-11-21T07:43:44;7.40;99.90
12885;DHT22;6510;51.362;7.370;2023-11-21T07:46:10;7.40;99.90
12885;DHT22;6510;51.362;7.370;2023-11-21T07:48:41;7.50;99.90
12885;DHT22;6510;51.362;7.370;2023-11-21T07:51:08;7.50;99.90
12885;DHT22;6510;51.362;7.370;2023-11-21T07:53:34;7.60;99.90
12885;DHT22;6510;51.362;7.370;2023-11-21T07:56:04;7.70;99.90
12885;DHT22;6510;51.362;7.370;2023-11-21T07:58:30;7.70;99.90
12885;DHT22;6510;51.362;7.370;2023-11-21T08:00:59;7.80;99.90
12885;DHT22;6510;51.362;7.370;2023-11-21T08:03:24;7.80;99.90
12885;DHT22;6510;51.362;7.370;2023-11-21T08:05:52;7.70;99.90
12885;DHT22;6510;51.362;7.370;2023-11-21T08:08:17;7.70;99.90
12885;DHT22;6510;51.362;7.370;2023-11-21T08:10:44;7.70;99.90
12885;DHT22;6510;51.362;7.370;2023-11-21T08:13:14;7.70;99.90
12885;DHT22;6510;51.362;7.370;2023-11-21T08:15:41;7.80;99.90
12885;DHT22;6510;51.362;7.370;2023-11-21T08:18:11;7.90;99.90
12885;DHT22;6510;51.362;7.370;2023-11-21T08:20:38;8.00;99.90
12885;DHT22;6510;51.362;7.370;2023-11-21T08:23:05;8.00;99.90
12885;DHT22;6510;51.362;7.370;2023-11-21T08:25:31;8.10;99.90
12885;DHT22;6510;51.362;7.370;2023-11-21T08:27:57;8.20;99.90
12885;DHT22;6510;51.362;7.370;2023-11-21T08:30:23;8.20;99.90
12885;DHT22;6510;51.362;7.370;2023-11-21T08:32:54;8.10;99.90
12885;DHT22;6510;51.362;7.370;2023-11-21T08:35:23;8.10;99.90
12885;DHT22;6510;51.362;7.370;2023-11-21T08:37:51;8.20;99.90
12885;DHT22;6510;51.362;7.370;2023-11-21T08:40:18;8.20;99.90
12885;DHT22;6510;51.362;7.370;2023-11-21T08:42:45;8.20;99.90
12885;DHT22;6510;51.362;7.370;2023-11-21T08:45:11;8.20;99.90
12885;DHT22;6510;51.362;7.370;2023-11-21T08:47:38;8.20;99.90
12885;DHT22;6510;51.362;7.370;2023-11-21T08:50:06;8.10;99.90
12885;DHT22;6510;51.362;7.370;2023-11-21T08:52:33;8.10;99.90
12885;DHT22;6510;51.362;7.370;2023-11-21T08:54:59;8.10;99.90
12885;DHT22;6510;51.362;7.370;2023-11-21T08:57:28;8.10;99.90
12885;DHT22;6510;51.362;7.370;2023-11-21T08:59:53;8.10;99.90
12885;DHT22;6510;51.362;7.370;2023-11-21T09:02:26;8.10;99.90
12885;DHT22;6510;51.362;7.370;2023-11-21T09:04:52;8.10;99.90
12885;DHT22;6510;51.362;7.370;2023-11-21T09:07:21;8.00;99.90
12885;DHT22;6510;51.362;7.370;2023-11-21T09:09:47;8.10;99.90
12885;DHT22;6510;51.362;7.370;2023-11-21T09:12:14;8.10;99.90
12885;DHT22;6510;51.362;7.370;2023-11-21T09:14:39;8.20;99.90
12885;DHT22;6510;51.362;7.370;2023-11-21T09:17:06;8.20;99.90
12885;DHT22;6510;51.362;7.370;2023-11-21T09:19:39;8.30;99.90
12885;DHT22;6510;51.362;7.370;2023-11-21T09:22:05;8.30;99.90
12885;DHT22;6510;51.362;7.370;2023-11-21T09:24:32;8.30;99.90
12885;DHT22;6510;51.362;7.370;2023-11-21T09:26:57;8.40;99.90
12885;DHT22;6510;51.362;7.370;2023-11-21T09:29:23;8.40;99.90
12885;DHT22;6510;51.362;7.370;2023-11-21T09:31:49;8.50;99.90
12885;DHT22;6510;51.362;7.370;2023-11-21T09:34:16;8.50;99.90
12885;DHT22;6510;51.362;7.370;2023-11-21T09:36:45;8.40;99.90
12885;DHT22;6510;51.362;7.370;2023-11-21T09:39:11;8.50;99.90
12885;DHT22;6510;51.362;7.370;2023-11-21T09:41:51;8.50;99.90
12885;DHT22;6510;51.362;7.370;2023-11-21T09:44:35;8.50;99.90
12885;DHT22;6510;51.362;7.370;2023-11-21T09:47:02;8.60;99.90
12885;DHT22;6510;51.362;7.370;2023-11-21T09:49:28;8.60;99.90
12885;DHT22;6510;51.362;7.370;2023-11-21T09:52:01;8.60;99.90
12885;DHT22;6510;51.362;7.370;2023-11-21T09:54:31;8.80;99.90
12885;DHT22;6510;51.362;7.370;2023-11-21T09:57:00;8.70;99.90
12885;DHT22;6510;51.362;7.370;2023-11-21T09:59:30;8.80;99.90
12885;DHT22;6510;51.362;7.370;2023-11-21T10:01:58;8.70;99.90
12885;DHT22;6510;51.362;7.370;2023-11-21T10:04:27;8.70;99.90
12885;DHT22;6510;51.362;7.370;2023-11-21T10:06:54;8.80;99.90
12885;DHT22;6510;51.362;7.370;2023-11-21T10:09:21;8.70;99.90
12885;DHT22;6510;51.362;7.370;2023-11-21T10:11:47;8.80;99.90
12885;DHT22;6510;51.362;7.370;2023-11-21T10:14:17;8.80;99.90
12885;DHT22;6510;51.362;7.370;2023-11-21T10:16:44;8.90;99.90
12885;DHT22;6510;51.362;7.370;2023-11-21T10:19:13;9.00;99.90
12885;DHT22;6510;51.362;7.370;2023-11-21T10:21:39;9.20;99.90
12885;DHT22;6510;51.362;7.370;2023-11-21T10:24:05;9.30;99.90
12885;DHT22;6510;51.362;7.370;2023-11-21T10:26:32;9.40;99.90
12885;DHT22;6510;51.362;7.370;2023-11-21T10:29:00;9.40;99.90
12885;DHT22;6510;51.362;7.370;2023-11-21T10:31:30;9.40;99.90
12885;DHT22;6510;51.362;7.370;2023-11-21T10:34:16;9.30;99.90
12885;DHT22;6510;51.362;7.370;2023-11-21T10:36:42;9.40;99.90
12885;DHT22;6510;51.362;7.370;2023-11-21T10:39:07;9.50;99.90
12885;DHT22;6510;51.362;7.370;2023-11-21T10:41:35;9.40;99.90
12885;DHT22;6510;51.362;7.370;2023-11-21T10:44:01;9.50;99.90
12885;DHT22;6510;51.362;7.370;2023-11-21T10:46:30;9.60;99.90
12885;DHT22;6510;51.362;7.370;2023-11-21T10:48:56;9.50;99.90
12885;DHT22;6510;51.362;7.370;2023-11-21T10:51:22;9.60;99.90
12885;DHT22;6510;51.362;7.370;2023-11-21T10:53:51;9.60;99.90
12885;DHT22;6510;51.362;7.370;2023-11-21T10:56:18;9.60;99.90
12885;DHT22;6510;51.362;7.370;2023-11-21T10:58:45;9.60;99.90
12885;DHT22;6510;51.362;7.370;2023-11-21T11:01:11;9.80;99.90
12885;DHT22;6510;51.362;7.370;2023-11-21T11:03:40;9.90;99.90
12885;DHT22;6510;51.362;7.370;2023-11-21T11:06:07;9.80;99.90
12885;DHT22;6510;51.362;7.370;2023-11-21T11:08:40;9.90;99.90
12885;DHT22;6510;51.362;7.370;2023-11-21T11:11:07;9.90;99.90
12885;DHT22;6510;51.362;7.370;2023-11-21T11:13:33;9.90;99.90
12885;DHT22;6510;51.362;7.370;2023-11-21T11:16:00;9.80;99.90
12885;DHT22;6510;51.362;7.370;2023-11-21T11:18:28;9.80;99.90
12885;DHT22;6510;51.362;7.370;2023-11-21T11:21:00;10.10;99.90
12885;DHT22;6510;51.362;7.370;2023-11-21T11:26:28;10.60;99.90
12885;DHT22;6510;51.362;7.370;2023-11-21T11:29:24;10.40;99.90
12885;DHT22;6510;51.362;7.370;2023-11-21T11:34:36;9.90;99.90
12885;DHT22;6510;51.362;7.370;2023-11-21T11:37:08;9.80;99.90
12885;DHT22;6510;51.362;7.370;2023-11-21T11:39:39;9.70;99.90
12885;DHT22;6510;51.362;7.370;2023-11-21T11:42:08;9.50;99.90
12885;DHT22;6510;51.362;7.370;2023-11-21T11:47:23;9.60;99.90
12885;DHT22;6510;51.362;7.370;2023-11-21T11:52:53;9.80;99.90
12885;DHT22;6510;51.362;7.370;2023-11-21T11:55:22;9.70;99.90
12885;DHT22;6510;51.362;7.370;2023-11-21T11:57:51;9.60;99.90
12885;DHT22;6510;51.362;7.370;2023-11-21T12:00:20;9.60;99.90
12885;DHT22;6510;51.362;7.370;2023-11-21T12:02:57;9.50;99.90
12885;DHT22;6510;51.362;7.370;2023-11-21T12:05:25;9.50;99.90
12885;DHT22;6510;51.362;7.370;2023-11-21T12:07:57;9.50;99.90
12885;DHT22;6510;51.362;7.370;2023-11-21T12:10:31;9.50;99.90
12885;DHT22;6510;51.362;7.370;2023-11-21T12:12:59;9.50;99.90
12885;DHT22;6510;51.362;7.370;2023-11-21T12:15:25;9.40;99.90
12885;DHT22;6510;51.362;7.370;2023-11-21T12:17:52;9.40;99.90
12885;DHT22;6510;51.362;7.370;2023-11-21T12:20:22;9.30;99.90
12885;DHT22;6510;51.362;7.370;2023-11-21T12:22:52;9.30;99.90
12885;DHT22;6510;51.362;7.370;2023-11-21T12:25:22;9.30;99.90
12885;DHT22;6510;51.362;7.370;2023-11-21T12:27:50;9.20;99.90
12885;DHT22;6510;51.362;7.370;2023-11-21T12:30:17;9.10;99.90
12885;DHT22;6510;51.362;7.370;2023-11-21T12:32:43;9.00;99.90
12885;DHT22;6510;51.362;7.370;2023-11-21T12:35:11;8.90;99.90
12885;DHT22;6510;51.362;7.370;2023-11-21T12:37:41;8.90;99.90
12885;DHT22;6510;51.362;7.370;2023-11-21T12:40:09;8.80;99.90
12885;DHT22;6510;51.362;7.370;2023-11-21T12:42:42;8.80;99.90
12885;DHT22;6510;51.362;7.370;2023-11-21T12:47:58;8.80;99.90
12885;DHT22;6510;51.362;7.370;2023-11-21T12:50:26;8.80;99.90
12885;DHT22;6510;51.362;7.370;2023-11-21T12:53:05;8.90;99.90
12885;DHT22;6510;51.362;7.370;2023-11-21T12:55:32;8.90;99.90
12885;DHT22;6510;51.362;7.370;2023-11-21T12:58:01;8.80;99.90
12885;DHT22;6510;51.362;7.370;2023-11-21T13:00:36;8.90;99.90
12885;DHT22;6510;51.362;7.370;2023-11-21T13:03:06;8.90;99.90
12885;DHT22;6510;51.362;7.370;2023-11-21T13:05:37;9.00;99.90
12885;DHT22;6510;51.362;7.370;2023-11-21T13:08:11;8.90;99.90
12885;DHT22;6510;51.362;7.370;2023-11-21T13:10:40;8.90;99.90
12885;DHT22;6510;51.362;7.370;2023-11-21T13:13:09;8.80;99.90
12885;DHT22;6510;51.362;7.370;2023-11-21T13:15:39;8.80;99.90
12885;DHT22;6510;51.362;7.370;2023-11-21T13:18:06;8.80;99.90
12885;DHT22;6510;51.362;7.370;2023-11-21T13:20:32;8.70;99.90
12885;DHT22;6510;51.362;7.370;2023-11-21T13:22:58;8.70;99.90
12885;DHT22;6510;51.362;7.370;2023-11-21T13:25:29;8.60;99.90
12885;DHT22;6510;51.362;7.370;2023-11-21T13:27:58;8.60;99.90
12885;DHT22;6510;51.362;7.370;2023-11-21T13:30:28;8.50;99.90
12885;DHT22;6510;51.362;7.370;2023-11-21T13:32:59;8.50;99.90
12885;DHT22;6510;51.362;7.370;2023-11-21T13:35:31;8.40;99.90
12885;DHT22;6510;51.362;7.370;2023-11-21T13:38:13;8.40;99.90
12885;DHT22;6510;51.362;7.370;2023-11-21T13:40:40;8.30;99.90
12885;DHT22;6510;51.362;7.370;2023-11-21T13:43:10;8.30;99.90
12885;DHT22;6510;51.362;7.370;2023-11-21T13:45:40;8.30;99.90
12885;DHT22;6510;51.362;7.370;2023-11-21T13:48:06;8.30;99.90
12885;DHT22;6510;51.362;7.370;2023-11-21T13:50:39;8.20;99.90
12885;DHT22;6510;51.362;7.370;2023-11-21T13:53:10;8.20;99.90
12885;DHT22;6510;51.362;7.370;2023-11-21T13:55:48;8.20;99.90
12885;DHT22;6510;51.362;7.370;2023-11-21T13:58:15;8.20;99.90
12885;DHT22;6510;51.362;7.370;2023-11-21T14:00:47;8.20;99.90
12885;DHT22;6510;51.362;7.370;2023-11-21T14:03:25;8.10;99.90
12885;DHT22;6510;51.362;7.370;2023-11-21T14:06:03;8.10;99.90
12885;DHT22;6510;51.362;7.370;2023-11-21T14:08:34;8.10;99.90
12885;DHT22;6510;51.362;7.370;2023-11-21T14:10:59;8.10;99.90
12885;DHT22;6510;51.362;7.370;2023-11-21T14:13:28;8.10;99.90
12885;DHT22;6510;51.362;7.370;2023-11-21T14:15:55;8.20;99.90
12885;DHT22;6510;51.362;7.370;2023-11-21T14:18:25;8.10;99.90
12885;DHT22;6510;51.362;7.370;2023-11-21T14:21:01;8.10;99.90
12885;DHT22;6510;51.362;7.370;2023-11-21T14:23:27;8.10;99.90
12885;DHT22;6510;51.362;7.370;2023-11-21T14:25:53;8.10;99.90
12885;DHT22;6510;51.362;7.370;2023-11-21T14:28:19;8.10;99.90
12885;DHT22;6510;51.362;7.370;2023-11-21T14:30:48;8.10;99.90
12885;DHT22;6510;51.362;7.370;2023-11-21T14:33:13;8.10;99.90
12885;DHT22;6510;51.362;7.370;2023-11-21T14:35:42;8.10;99.90
12885;DHT22;6510;51.362;7.370;2023-11-21T14:38:08;8.10;99.90
12885;DHT22;6510;51.362;7.370;2023-11-21T14:40:35;8.10;99.90
12885;DHT22;6510;51.362;7.370;2023-11-21T14:43:02;8.10;99.90
12885;DHT22;6510;51.362;7.370;2023-11-21T14:45:30;8.10;99.90
12885;DHT22;6510;51.362;7.370;2023-11-21T14:47:56;8.20;99.90
12885;DHT22;6510;51.362;7.370;2023-11-21T14:50:32;8.10;99.90
12885;DHT22;6510;51.362;7.370;2023-11-21T14:53:03;8.00;99.90
12885;DHT22;6510;51.362;7.370;2023-11-21T14:55:32;8.00;99.90
12885;DHT22;6510;51.362;7.370;2023-11-21T14:58:19;8.00;99.90
12885;DHT22;6510;51.362;7.370;2023-11-21T15:00:57;8.00;99.90
12885;DHT22;6510;51.362;7.370;2023-11-21T15:03:27;8.00;99.90
12885;DHT22;6510;51.362;7.370;2023-11-21T15:05:59;7.90;99.90
12885;DHT22;6510;51.362;7.370;2023-11-21T15:08:43;7.90;99.90
12885;DHT22;6510;51.362;7.370;2023-11-21T15:11:09;7.90;99.90
12885;DHT22;6510;51.362;7.370;2023-11-21T15:13:40;7.90;99.90
12885;DHT22;6510;51.362;7.370;2023-11-21T15:16:08;7.90;99.90
12885;DHT22;6510;51.362;7.370;2023-11-21T15:18:34;7.90;99.90
12885;DHT22;6510;51.362;7.370;2023-11-21T15:21:01;7.90;99.90
12885;DHT22;6510;51.362;7.370;2023-11-21T15:23:29;7.90;99.90
12885;DHT22;6510;51.362;7.370;2023-11-21T15:25:56;7.80;99.90
12885;DHT22;6510;51.362;7.370;2023-11-21T15:28:23;7.70;99.90
12885;DHT22;6510;51.362;7.370;2023-11-21T15:30:50;7.70;99.90
12885;DHT22;6510;51.362;7.370;2023-11-21T15:33:17;7.70;99.90
12885;DHT22;6510;51.362;7.370;2023-11-21T15:35:43;7.70;99.90
12885;DHT22;6510;51.362;7.370;2023-11-21T15:38:08;7.70;99.90
12885;DHT22;6510;51.362;7.370;2023-11-21T15:40:34;7.70;99.90
12885;DHT22;6510;51.362;7.370;2023-11-21T15:43:00;7.60;99.90
12885;DHT22;6510;51.362;7.370;2023-11-21T15:45:28;7.60;99.90
12885;DHT22;6510;51.362;7.370;2023-11-21T15:47:54;7.60;99.90
12885;DHT22;6510;51.362;7.370;2023-11-21T15:50:21;7.50;99.90
12885;DHT22;6510;51.362;7.370;2023-11-21T15:52:47;7.50;99.90
12885;DHT22;6510;51.362;7.370;2023-11-21T15:55:13;7.50;99.90
12885;DHT22;6510;51.362;7.370;2023-11-21T15:57:38;7.50;99.90
12885;DHT22;6510;51.362;7.370;2023-11-21T16:00:04;7.50;99.90
12885;DHT22;6510;51.362;7.370;2023-11-21T16:02:36;7.40;99.90
12885;DHT22;6510;51.362;7.370;2023-11-21T16:05:04;7.40;99.90
12885;DHT22;6510;51.362;7.370;2023-11-21T16:07:30;7.40;99.90
12885;DHT22;6510;51.362;7.370;2023-11-21T16:09:56;7.40;99.90
12885;DHT22;6510;51.362;7.370;2023-11-21T16:12:22;7.30;99.90
12885;DHT22;6510;51.362;7.370;2023-11-21T16:14:48;7.20;99.90
12885;DHT22;6510;51.362;7.370;2023-11-21T16:17:15;7.20;99.90
12885;DHT22;6510;51.362;7.370;2023-11-21T16:19:43;7.10;99.90